sensor_id;sensor_type;location;lat;lon;timestamp;pressure;altitude;pressure_sealevel;temperature;humidity
40592;BME280;26301;42.832;23.918;2023-02-08T00:01:37;94598.84;;;-9.15;86.43
40592;BME280;26301;42.832;23.918;2023-02-08T00:04:03;94603.47;;;-9.07;86.93
40592;BME280;26301;42.832;23.918;2023-02-08T00:06:29;94601.44;;;-9.16;86.68
40592;BME280;26301;42.832;23.918;2023-02-08T00:08:54;94612.91;;;-9.12;86.79
40592;BME280;26301;42.832;23.918;2023-02-08T00:11:20;94594.16;;;-9.21;86.78
40592;BME280;26301;42.832;23.918;2023-02-08T00:13:46;94609.44;;;-9.10;87.20
40592;BME280;26301;42.832;23.918;2023-02-08T00:16:13;94593.59;;;-9.10;87.17
40592;BME280;26301;42.832;23.918;2023-02-08T00:18:38;94605.06;;;-9.06;86.97
40592;BME280;26301;42.832;23.918;2023-02-08T00:21:12;94621.53;;;-8.86;87.01
40592;BME280;26301;42.832;23.918;2023-02-08T00:23:38;94624.13;;;-8.72;86.34
40592;BME280;26301;42.832;23.918;2023-02-08T00:26:04;94623.44;;;-8.76;86.22
40592;BME280;26301;42.832;23.918;2023-02-08T00:28:30;94612.66;;;-8.92;86.63
40592;BME280;26301;42.832;23.918;2023-02-08T00:30:55;94628.63;;;-8.79;86.61
40592;BME280;26301;42.832;23.918;2023-02-08T00:33:21;94622.50;;;-8.73;86.64
40592;BME280;26301;42.832;23.918;2023-02-08T00:35:47;94614.09;;;-8.72;87.06
40592;BME280;26301;42.832;23.918;2023-02-08T00:38:12;94635.00;;;-8.57;86.34
40592;BME280;26301;42.832;23.918;2023-02-08T00:40:38;94603.25;;;-8.72;86.27
40592;BME280;26301;42.832;23.918;2023-02-08T00:43:04;94631.50;;;-8.55;86.12
40592;BME280;26301;42.832;23.918;2023-02-08T00:45:32;94619.41;;;-8.62;86.48
40592;BME280;26301;42.832;23.918;2023-02-08T00:47:58;94629.84;;;-8.54;86.23
40592;BME280;26301;42.832;23.918;2023-02-08T00:50:23;94628.38;;;-8.58;86.11
40592;BME280;26301;42.832;23.918;2023-02-08T00:52:49;94610.94;;;-8.76;86.55
40592;BME280;26301;42.832;23.918;2023-02-08T00:55:15;94631.38;;;-8.67;86.55
40592;BME280;26301;42.832;23.918;2023-02-08T00:57:41;94615.78;;;-8.72;86.50
40592;BME280;26301;42.832;23.918;2023-02-08T01:00:08;94615.78;;;-8.72;86.70
40592;BME280;26301;42.832;23.918;2023-02-08T01:02:33;94623.84;;;-8.67;86.60
40592;BME280;26301;42.832;23.918;2023-02-08T01:04:59;94644.94;;;-8.56;86.35
40592;BME280;26301;42.832;23.918;2023-02-08T01:07:25;94611.50;;;-8.70;86.36
40592;BME280;26301;42.832;23.918;2023-02-08T01:09:50;94616.44;;;-8.69;86.81
40592;BME280;26301;42.832;23.918;2023-02-08T01:12:16;94620.63;;;-8.69;86.71
40592;BME280;26301;42.832;23.918;2023-02-08T01:14:42;94639.03;;;-8.55;86.97
40592;BME280;26301;42.832;23.918;2023-02-08T01:17:07;94620.44;;;-8.66;87.07
40592;BME280;26301;42.832;23.918;2023-02-08T01:19:33;94645.97;;;-8.44;86.91
40592;BME280;26301;42.832;23.918;2023-02-08T01:21:59;94624.38;;;-8.46;86.56
40592;BME280;26301;42.832;23.918;2023-02-08T01:24:25;94636.22;;;-8.34;86.66
40592;BME280;26301;42.832;23.918;2023-02-08T01:26:50;94623.31;;;-8.42;86.93
40592;BME280;26301;42.832;23.918;2023-02-08T01:29:16;94633.25;;;-8.41;86.61
40592;BME280;26301;42.832;23.918;2023-02-08T01:31:42;94642.66;;;-8.44;86.96
40592;BME280;26301;42.832;23.918;2023-02-08T01:34:09;94644.91;;;-8.40;86.93
40592;BME280;26301;42.832;23.918;2023-02-08T01:36:36;94636.31;;;-8.36;86.93
40592;BME280;26301;42.832;23.918;2023-02-08T01:39:04;94647.19;;;-8.21;86.96
40592;BME280;26301;42.832;23.918;2023-02-08T01:41:33;94626.47;;;-8.39;87.08
40592;BME280;26301;42.832;23.918;2023-02-08T01:46:36;94643.84;;;-8.21;87.44
40592;BME280;26301;42.832;23.918;2023-02-08T01:49:11;94614.22;;;-8.29;87.05
40592;BME280;26301;42.832;23.918;2023-02-08T01:51:47;94636.63;;;-8.12;86.85
40592;BME280;26301;42.832;23.918;2023-02-08T01:54:15;94636.47;;;-8.09;86.16
40592;BME280;26301;42.832;23.918;2023-02-08T01:56:44;94614.66;;;-8.22;86.44
40592;BME280;26301;42.832;23.918;2023-02-08T01:59:17;94643.66;;;-8.02;86.35
40592;BME280;26301;42.832;23.918;2023-02-08T02:01:45;94640.59;;;-8.08;85.99
40592;BME280;26301;42.832;23.918;2023-02-08T02:04:12;94645.41;;;-8.05;85.65
40592;BME280;26301;42.832;23.918;2023-02-08T02:06:42;94626.06;;;-8.17;85.85
40592;BME280;26301;42.832;23.918;2023-02-08T02:09:27;94649.19;;;-8.12;86.00
40592;BME280;26301;42.832;23.918;2023-02-08T02:11:54;94661.28;;;-8.04;85.88
40592;BME280;26301;42.832;23.918;2023-02-08T02:14:21;94653.38;;;-8.12;85.85
40592;BME280;26301;42.832;23.918;2023-02-08T02:16:47;94648.06;;;-8.22;86.34
40592;BME280;26301;42.832;23.918;2023-02-08T02:19:27;94651.72;;;-8.28;86.61
40592;BME280;26301;42.832;23.918;2023-02-08T02:43:46;94692.78;;;-8.14;87.70
40592;BME280;26301;42.832;23.918;2023-02-08T02:46:32;94691.31;;;-8.18;88.18
40592;BME280;26301;42.832;23.918;2023-02-08T02:49:17;94677.59;;;-8.27;88.30
40592;BME280;26301;42.832;23.918;2023-02-08T02:51:57;94690.59;;;-8.20;88.38
40592;BME280;26301;42.832;23.918;2023-02-08T02:54:32;94684.13;;;-8.09;88.34
40592;BME280;26301;42.832;23.918;2023-02-08T02:57:02;94689.19;;;-8.10;88.29
40592;BME280;26301;42.832;23.918;2023-02-08T02:59:32;94692.50;;;-8.10;88.27
40592;BME280;26301;42.832;23.918;2023-02-08T03:01:58;94691.72;;;-8.10;88.19
40592;BME280;26301;42.832;23.918;2023-02-08T03:15:29;94709.53;;;-7.85;87.87
40592;BME280;26301;42.832;23.918;2023-02-08T03:20:47;94708.16;;;-7.90;87.70
40592;BME280;26301;42.832;23.918;2023-02-08T03:23:30;94698.66;;;-7.99;87.19
40592;BME280;26301;42.832;23.918;2023-02-08T03:33:52;94719.13;;;-7.77;87.13
40592;BME280;26301;42.832;23.918;2023-02-08T03:36:36;94723.78;;;-7.71;87.41
40592;BME280;26301;42.832;23.918;2023-02-08T03:39:07;94706.13;;;-7.84;87.30
40592;BME280;26301;42.832;23.918;2023-02-08T03:41:38;94731.94;;;-7.67;87.06
40592;BME280;26301;42.832;23.918;2023-02-08T03:44:12;94706.75;;;-7.80;87.03
40592;BME280;26301;42.832;23.918;2023-02-08T03:46:43;94730.50;;;-7.71;87.20
40592;BME280;26301;42.832;23.918;2023-02-08T03:49:14;94736.84;;;-7.80;87.81
40592;BME280;26301;42.832;23.918;2023-02-08T03:51:42;94727.16;;;-7.86;88.42
40592;BME280;26301;42.832;23.918;2023-02-08T03:54:14;94721.91;;;-7.97;87.93
40592;BME280;26301;42.832;23.918;2023-02-08T03:59:39;94741.97;;;-7.82;88.39
40592;BME280;26301;42.832;23.918;2023-02-08T04:02:09;94733.38;;;-7.77;87.94
40592;BME280;26301;42.832;23.918;2023-02-08T04:04:40;94737.13;;;-7.70;87.85
40592;BME280;26301;42.832;23.918;2023-02-08T04:07:07;94730.69;;;-7.74;88.09
40592;BME280;26301;42.832;23.918;2023-02-08T04:09:33;94729.88;;;-7.75;87.62
40592;BME280;26301;42.832;23.918;2023-02-08T04:11:58;94713.66;;;-7.84;87.48
40592;BME280;26301;42.832;23.918;2023-02-08T04:14:24;94723.59;;;-7.82;87.41
40592;BME280;26301;42.832;23.918;2023-02-08T04:16:50;94735.72;;;-7.74;87.26
40592;BME280;26301;42.832;23.918;2023-02-08T04:19:15;94740.25;;;-7.81;87.93
40592;BME280;26301;42.832;23.918;2023-02-08T04:21:41;94744.47;;;-7.82;88.11
40592;BME280;26301;42.832;23.918;2023-02-08T04:24:07;94738.16;;;-7.73;87.90
40592;BME280;26301;42.832;23.918;2023-02-08T04:26:32;94736.34;;;-7.71;87.63
40592;BME280;26301;42.832;23.918;2023-02-08T04:28:59;94730.13;;;-7.79;87.65
40592;BME280;26301;42.832;23.918;2023-02-08T04:31:25;94728.28;;;-7.76;87.67
40592;BME280;26301;42.832;23.918;2023-02-08T04:33:50;94730.63;;;-7.73;87.56
40592;BME280;26301;42.832;23.918;2023-02-08T04:36:17;94734.09;;;-7.75;87.19
40592;BME280;26301;42.832;23.918;2023-02-08T04:38:42;94762.78;;;-7.65;87.48
40592;BME280;26301;42.832;23.918;2023-02-08T04:41:08;94754.13;;;-7.60;87.38
40592;BME280;26301;42.832;23.918;2023-02-08T04:43:35;94761.66;;;-7.60;87.37
40592;BME280;26301;42.832;23.918;2023-02-08T04:46:00;94745.84;;;-7.62;87.41
40592;BME280;26301;42.832;23.918;2023-02-08T04:48:26;94736.44;;;-7.72;87.29
40592;BME280;26301;42.832;23.918;2023-02-08T04:50:55;94753.56;;;-7.65;87.22
40592;BME280;26301;42.832;23.918;2023-02-08T04:53:21;94739.19;;;-7.77;87.26
40592;BME280;26301;42.832;23.918;2023-02-08T04:55:47;94762.38;;;-7.57;87.19
40592;BME280;26301;42.832;23.918;2023-02-08T04:58:13;94755.09;;;-7.62;87.19
40592;BME280;26301;42.832;23.918;2023-02-08T05:00:38;94758.06;;;-7.55;86.87
40592;BME280;26301;42.832;23.918;2023-02-08T05:03:04;94780.69;;;-7.41;86.81
40592;BME280;26301;42.832;23.918;2023-02-08T05:05:29;94783.03;;;-7.38;86.70
40592;BME280;26301;42.832;23.918;2023-02-08T05:07:55;94782.84;;;-7.35;86.07
40592;BME280;26301;42.832;23.918;2023-02-08T05:10:21;94761.50;;;-7.42;85.91
40592;BME280;26301;42.832;23.918;2023-02-08T05:12:46;94762.75;;;-7.35;86.09
40592;BME280;26301;42.832;23.918;2023-02-08T05:15:12;94769.38;;;-7.34;86.28
40592;BME280;26301;42.832;23.918;2023-02-08T05:17:38;94779.56;;;-7.21;86.21
40592;BME280;26301;42.832;23.918;2023-02-08T05:20:04;94762.34;;;-7.27;85.68
40592;BME280;26301;42.832;23.918;2023-02-08T05:22:31;94784.94;;;-7.13;85.24
40592;BME280;26301;42.832;23.918;2023-02-08T05:24:57;94772.03;;;-7.21;85.38
40592;BME280;26301;42.832;23.918;2023-02-08T05:27:22;94792.22;;;-7.08;85.13
40592;BME280;26301;42.832;23.918;2023-02-08T05:29:48;94769.41;;;-7.20;85.02
40592;BME280;26301;42.832;23.918;2023-02-08T05:32:13;94773.03;;;-7.09;84.85
40592;BME280;26301;42.832;23.918;2023-02-08T05:34:39;94788.81;;;-7.07;84.24
40592;BME280;26301;42.832;23.918;2023-02-08T05:37:05;94790.97;;;-7.16;83.57
40592;BME280;26301;42.832;23.918;2023-02-08T05:39:30;94794.91;;;-7.11;83.15
40592;BME280;26301;42.832;23.918;2023-02-08T05:41:56;94779.91;;;-7.27;82.97
40592;BME280;26301;42.832;23.918;2023-02-08T05:44:21;94805.13;;;-7.15;82.64
40592;BME280;26301;42.832;23.918;2023-02-08T05:46:47;94812.66;;;-7.15;81.96
40592;BME280;26301;42.832;23.918;2023-02-08T05:49:12;94807.19;;;-7.21;80.46
40592;BME280;26301;42.832;23.918;2023-02-08T05:51:38;94796.22;;;-7.34;79.65
40592;BME280;26301;42.832;23.918;2023-02-08T05:54:04;94792.09;;;-7.36;78.60
40592;BME280;26301;42.832;23.918;2023-02-08T05:56:30;94804.00;;;-7.39;78.31
40592;BME280;26301;42.832;23.918;2023-02-08T05:58:55;94824.47;;;-7.31;78.62
40592;BME280;26301;42.832;23.918;2023-02-08T06:01:21;94811.16;;;-7.47;78.46
40592;BME280;26301;42.832;23.918;2023-02-08T06:03:47;94824.00;;;-7.38;78.60
40592;BME280;26301;42.832;23.918;2023-02-08T06:06:13;94833.97;;;-7.36;79.23
40592;BME280;26301;42.832;23.918;2023-02-08T06:08:39;94815.53;;;-7.51;79.54
40592;BME280;26301;42.832;23.918;2023-02-08T06:11:05;94840.69;;;-7.37;80.49
40592;BME280;26301;42.832;23.918;2023-02-08T06:13:31;94835.69;;;-7.37;80.53
40592;BME280;26301;42.832;23.918;2023-02-08T06:15:56;94838.25;;;-7.38;81.61
40592;BME280;26301;42.832;23.918;2023-02-08T06:18:22;94820.81;;;-7.55;82.13
40592;BME280;26301;42.832;23.918;2023-02-08T06:20:47;94823.06;;;-7.51;82.05
40592;BME280;26301;42.832;23.918;2023-02-08T06:23:15;94838.03;;;-7.49;82.48
40592;BME280;26301;42.832;23.918;2023-02-08T06:25:41;94841.75;;;-7.41;83.11
40592;BME280;26301;42.832;23.918;2023-02-08T06:28:06;94833.69;;;-7.46;82.91
40592;BME280;26301;42.832;23.918;2023-02-08T06:30:35;94836.19;;;-7.46;83.33
40592;BME280;26301;42.832;23.918;2023-02-08T06:33:01;94839.66;;;-7.48;83.07
40592;BME280;26301;42.832;23.918;2023-02-08T06:35:26;94831.63;;;-7.39;83.14
40592;BME280;26301;42.832;23.918;2023-02-08T06:37:52;94847.09;;;-7.31;83.11
40592;BME280;26301;42.832;23.918;2023-02-08T06:40:18;94808.47;;;-7.44;83.14
40592;BME280;26301;42.832;23.918;2023-02-08T06:42:46;94816.00;;;-7.44;83.01
40592;BME280;26301;42.832;23.918;2023-02-08T06:45:11;94826.44;;;-7.36;82.65
40592;BME280;26301;42.832;23.918;2023-02-08T06:47:37;94849.59;;;-7.17;83.10
40592;BME280;26301;42.832;23.918;2023-02-08T06:50:03;94842.00;;;-7.15;82.80
40592;BME280;26301;42.832;23.918;2023-02-08T06:52:29;94855.47;;;-7.02;83.37
40592;BME280;26301;42.832;23.918;2023-02-08T06:54:54;94867.06;;;-6.99;83.19
40592;BME280;26301;42.832;23.918;2023-02-08T06:57:20;94859.34;;;-6.96;83.21
40592;BME280;26301;42.832;23.918;2023-02-08T06:59:45;94866.44;;;-6.88;83.80
40592;BME280;26301;42.832;23.918;2023-02-08T07:02:13;94875.31;;;-6.83;83.52
40592;BME280;26301;42.832;23.918;2023-02-08T07:04:39;94879.28;;;-6.79;83.55
40592;BME280;26301;42.832;23.918;2023-02-08T07:07:06;94868.44;;;-6.79;83.56
40592;BME280;26301;42.832;23.918;2023-02-08T07:09:35;94875.16;;;-6.65;83.82
40592;BME280;26301;42.832;23.918;2023-02-08T07:12:01;94861.97;;;-6.69;83.65
40592;BME280;26301;42.832;23.918;2023-02-08T07:14:37;94820.50;;;-6.91;83.42
40592;BME280;26301;42.832;23.918;2023-02-08T07:17:03;94876.72;;;-6.49;83.62
40592;BME280;26301;42.832;23.918;2023-02-08T07:19:28;94874.81;;;-6.45;82.83
40592;BME280;26301;42.832;23.918;2023-02-08T07:21:54;94870.59;;;-6.45;83.22
40592;BME280;26301;42.832;23.918;2023-02-08T07:24:21;94896.28;;;-6.25;83.13
40592;BME280;26301;42.832;23.918;2023-02-08T07:26:46;94876.53;;;-6.31;83.13
40592;BME280;26301;42.832;23.918;2023-02-08T07:29:12;94885.88;;;-6.19;84.22
40592;BME280;26301;42.832;23.918;2023-02-08T07:31:37;94903.63;;;-6.08;84.28
40592;BME280;26301;42.832;23.918;2023-02-08T07:34:03;94879.75;;;-6.15;83.84
40592;BME280;26301;42.832;23.918;2023-02-08T07:36:28;94898.16;;;-6.00;83.69
40592;BME280;26301;42.832;23.918;2023-02-08T07:38:54;94907.31;;;-5.99;83.62
40592;BME280;26301;42.832;23.918;2023-02-08T07:41:20;94895.44;;;-5.97;83.44
40592;BME280;26301;42.832;23.918;2023-02-08T07:43:45;94883.31;;;-6.05;83.64
40592;BME280;26301;42.832;23.918;2023-02-08T07:46:15;94900.69;;;-5.87;83.54
40592;BME280;26301;42.832;23.918;2023-02-08T07:48:41;94905.47;;;-5.83;83.21
40592;BME280;26301;42.832;23.918;2023-02-08T07:51:08;94889.28;;;-5.79;82.84
40592;BME280;26301;42.832;23.918;2023-02-08T07:53:35;94902.03;;;-5.67;82.33
40592;BME280;26301;42.832;23.918;2023-02-08T07:56:00;94914.41;;;-5.64;82.47
40592;BME280;26301;42.832;23.918;2023-02-08T07:58:26;94920.63;;;-5.70;83.58
40592;BME280;26301;42.832;23.918;2023-02-08T08:00:52;94905.28;;;-5.80;82.94
40592;BME280;26301;42.832;23.918;2023-02-08T08:03:18;94912.41;;;-5.86;83.25
40592;BME280;26301;42.832;23.918;2023-02-08T08:05:43;94905.13;;;-5.91;84.31
40592;BME280;26301;42.832;23.918;2023-02-08T08:08:10;94940.03;;;-5.72;85.34
40592;BME280;26301;42.832;23.918;2023-02-08T08:10:36;94919.22;;;-5.88;85.04
40592;BME280;26301;42.832;23.918;2023-02-08T08:13:02;94929.72;;;-5.82;84.50
40592;BME280;26301;42.832;23.918;2023-02-08T08:15:27;94944.63;;;-5.64;83.84
40592;BME280;26301;42.832;23.918;2023-02-08T08:17:53;94895.97;;;-5.92;83.99
40592;BME280;26301;42.832;23.918;2023-02-08T08:20:19;94941.81;;;-5.60;83.21
40592;BME280;26301;42.832;23.918;2023-02-08T08:22:45;94935.28;;;-5.62;84.42
40592;BME280;26301;42.832;23.918;2023-02-08T08:25:10;94924.88;;;-5.70;84.51
40592;BME280;26301;42.832;23.918;2023-02-08T08:27:36;94949.47;;;-5.47;84.47
40592;BME280;26301;42.832;23.918;2023-02-08T08:30:04;94945.56;;;-5.38;84.13
40592;BME280;26301;42.832;23.918;2023-02-08T08:32:30;94935.00;;;-5.31;83.98
40592;BME280;26301;42.832;23.918;2023-02-08T08:34:55;94922.13;;;-5.26;82.29
40592;BME280;26301;42.832;23.918;2023-02-08T08:37:21;94952.09;;;-5.09;82.49
40592;BME280;26301;42.832;23.918;2023-02-08T08:39:46;94949.38;;;-5.06;81.63
40592;BME280;26301;42.832;23.918;2023-02-08T08:42:12;94947.72;;;-5.05;82.11
40592;BME280;26301;42.832;23.918;2023-02-08T08:44:38;94939.66;;;-4.97;81.84
40592;BME280;26301;42.832;23.918;2023-02-08T08:47:04;94937.34;;;-4.88;80.73
40592;BME280;26301;42.832;23.918;2023-02-08T08:49:29;94935.91;;;-5.04;81.75
40592;BME280;26301;42.832;23.918;2023-02-08T08:51:56;94957.94;;;-4.81;80.14
40592;BME280;26301;42.832;23.918;2023-02-08T08:54:22;94965.22;;;-4.76;79.66
40592;BME280;26301;42.832;23.918;2023-02-08T08:56:48;94947.63;;;-4.91;80.57
40592;BME280;26301;42.832;23.918;2023-02-08T08:59:14;94967.53;;;-4.73;79.94
40592;BME280;26301;42.832;23.918;2023-02-08T09:01:39;94951.88;;;-4.78;78.85
40592;BME280;26301;42.832;23.918;2023-02-08T09:04:07;94967.66;;;-4.62;77.24
40592;BME280;26301;42.832;23.918;2023-02-08T09:06:33;94943.91;;;-4.72;77.48
40592;BME280;26301;42.832;23.918;2023-02-08T09:09:00;94971.00;;;-4.49;76.26
40592;BME280;26301;42.832;23.918;2023-02-08T09:11:26;94967.69;;;-4.49;76.87
40592;BME280;26301;42.832;23.918;2023-02-08T09:13:52;94966.97;;;-4.51;76.59
40592;BME280;26301;42.832;23.918;2023-02-08T09:16:21;94981.09;;;-4.49;75.82
40592;BME280;26301;42.832;23.918;2023-02-08T09:18:47;94982.00;;;-4.50;75.55
40592;BME280;26301;42.832;23.918;2023-02-08T09:21:18;94983.91;;;-4.66;76.19
40592;BME280;26301;42.832;23.918;2023-02-08T09:23:45;94983.06;;;-4.67;76.60
40592;BME280;26301;42.832;23.918;2023-02-08T09:26:13;94974.88;;;-4.83;77.05
40592;BME280;26301;42.832;23.918;2023-02-08T09:28:39;94982.53;;;-4.85;77.28
40592;BME280;26301;42.832;23.918;2023-02-08T09:31:09;94993.31;;;-4.83;76.78
40592;BME280;26301;42.832;23.918;2023-02-08T09:33:35;94974.31;;;-5.01;77.90
40592;BME280;26301;42.832;23.918;2023-02-08T09:36:01;94984.97;;;-4.83;77.30
40592;BME280;26301;42.832;23.918;2023-02-08T09:38:26;94969.94;;;-5.12;77.91
40592;BME280;26301;42.832;23.918;2023-02-08T09:46:16;94991.91;;;-4.87;79.06
40592;BME280;26301;42.832;23.918;2023-02-08T09:48:44;94994.50;;;-4.88;77.42
40592;BME280;26301;42.832;23.918;2023-02-08T09:51:24;94974.09;;;-5.11;77.04
40592;BME280;26301;42.832;23.918;2023-02-08T09:54:01;94998.03;;;-4.91;78.26
40592;BME280;26301;42.832;23.918;2023-02-08T09:56:33;94971.41;;;-4.95;78.28
40592;BME280;26301;42.832;23.918;2023-02-08T09:59:01;94988.75;;;-4.63;75.92
40592;BME280;26301;42.832;23.918;2023-02-08T10:01:30;94981.78;;;-4.60;75.47
40592;BME280;26301;42.832;23.918;2023-02-08T10:04:21;94985.66;;;-4.41;72.95
40592;BME280;26301;42.832;23.918;2023-02-08T10:06:48;94984.84;;;-4.42;74.13
40592;BME280;26301;42.832;23.918;2023-02-08T10:09:15;94971.81;;;-4.48;73.38
40592;BME280;26301;42.832;23.918;2023-02-08T10:11:53;94980.22;;;-4.35;73.05
40592;BME280;26301;42.832;23.918;2023-02-08T10:20:07;94961.78;;;-4.75;71.34
40592;BME280;26301;42.832;23.918;2023-02-08T10:36:46;94974.50;;;-4.64;73.11
40592;BME280;26301;42.832;23.918;2023-02-08T10:39:18;94964.75;;;-4.56;72.20
40592;BME280;26301;42.832;23.918;2023-02-08T10:41:45;94977.69;;;-4.35;72.26
40592;BME280;26301;42.832;23.918;2023-02-08T10:44:23;94991.50;;;-4.28;70.13
40592;BME280;26301;42.832;23.918;2023-02-08T10:47:16;94992.63;;;-4.32;71.38
40592;BME280;26301;42.832;23.918;2023-02-08T10:52:25;94976.84;;;-4.48;73.07
40592;BME280;26301;42.832;23.918;2023-02-08T10:54:51;94996.66;;;-4.29;70.84
40592;BME280;26301;42.832;23.918;2023-02-08T10:57:23;94966.28;;;-4.41;70.75
40592;BME280;26301;42.832;23.918;2023-02-08T10:59:50;94986.38;;;-4.26;70.79
40592;BME280;26301;42.832;23.918;2023-02-08T11:05:31;94993.44;;;-4.19;73.02
40592;BME280;26301;42.832;23.918;2023-02-08T11:10:40;94959.44;;;-4.39;71.03
40592;BME280;26301;42.832;23.918;2023-02-08T11:18:33;94996.28;;;-4.23;72.35
40592;BME280;26301;42.832;23.918;2023-02-08T11:21:05;94980.00;;;-4.19;70.49
40592;BME280;26301;42.832;23.918;2023-02-08T11:23:34;94991.75;;;-4.18;71.64
40592;BME280;26301;42.832;23.918;2023-02-08T11:26:23;94972.25;;;-4.29;71.66
40592;BME280;26301;42.832;23.918;2023-02-08T11:29:20;94997.19;;;-4.11;71.53
40592;BME280;26301;42.832;23.918;2023-02-08T11:34:35;94984.56;;;-4.11;72.77
40592;BME280;26301;42.832;23.918;2023-02-08T11:37:17;94972.56;;;-4.21;72.33
40592;BME280;26301;42.832;23.918;2023-02-08T11:39:57;94997.97;;;-3.98;71.85
40592;BME280;26301;42.832;23.918;2023-02-08T11:42:29;94979.59;;;-4.13;71.29
40592;BME280;26301;42.832;23.918;2023-02-08T11:44:57;94979.19;;;-4.07;71.28
40592;BME280;26301;42.832;23.918;2023-02-08T11:47:32;94975.97;;;-3.96;69.11
40592;BME280;26301;42.832;23.918;2023-02-08T11:50:01;94992.13;;;-3.86;69.90
40592;BME280;26301;42.832;23.918;2023-02-08T11:52:33;94971.31;;;-3.89;68.04
40592;BME280;26301;42.832;23.918;2023-02-08T11:55:13;94984.06;;;-3.91;67.98
40592;BME280;26301;42.832;23.918;2023-02-08T11:57:57;95000.09;;;-3.92;69.21
40592;BME280;26301;42.832;23.918;2023-02-08T12:00:30;95003.75;;;-3.96;71.19
40592;BME280;26301;42.832;23.918;2023-02-08T12:03:24;94982.63;;;-3.95;70.44
40592;BME280;26301;42.832;23.918;2023-02-08T12:14:07;95001.00;;;-3.55;65.94
40592;BME280;26301;42.832;23.918;2023-02-08T12:22:05;94998.28;;;-3.77;66.06
40592;BME280;26301;42.832;23.918;2023-02-08T12:38:26;94996.06;;;-3.69;65.28
40592;BME280;26301;42.832;23.918;2023-02-08T12:41:37;94998.28;;;-3.77;66.65
40592;BME280;26301;42.832;23.918;2023-02-08T12:49:55;94984.66;;;-4.00;69.70
40592;BME280;26301;42.832;23.918;2023-02-08T12:52:47;95010.19;;;-3.92;69.85
40592;BME280;26301;42.832;23.918;2023-02-08T12:55:24;94985.06;;;-4.19;69.77
40592;BME280;26301;42.832;23.918;2023-02-08T12:57:53;95001.13;;;-4.07;69.45
40592;BME280;26301;42.832;23.918;2023-02-08T13:00:24;94999.50;;;-4.08;69.58
40592;BME280;26301;42.832;23.918;2023-02-08T13:05:41;95000.09;;;-4.30;69.72
40592;BME280;26301;42.832;23.918;2023-02-08T13:08:19;95009.38;;;-4.31;67.73
40592;BME280;26301;42.832;23.918;2023-02-08T13:10:54;94997.81;;;-4.61;67.38
40592;BME280;26301;42.832;23.918;2023-02-08T13:13:42;95020.44;;;-4.46;66.77
40592;BME280;26301;42.832;23.918;2023-02-08T13:16:13;95018.94;;;-4.49;66.69
40592;BME280;26301;42.832;23.918;2023-02-08T13:18:53;95002.31;;;-4.78;67.39
40592;BME280;26301;42.832;23.918;2023-02-08T13:21:23;95004.81;;;-4.78;67.72
40592;BME280;26301;42.832;23.918;2023-02-08T13:23:50;95021.53;;;-4.63;68.92
40592;BME280;26301;42.832;23.918;2023-02-08T13:26:20;95023.88;;;-4.47;67.05
40592;BME280;26301;42.832;23.918;2023-02-08T13:28:56;95027.06;;;-4.58;68.72
40592;BME280;26301;42.832;23.918;2023-02-08T13:31:30;95027.88;;;-4.57;69.28
40592;BME280;26301;42.832;23.918;2023-02-08T13:34:05;95024.22;;;-4.39;69.14
40592;BME280;26301;42.832;23.918;2023-02-08T13:36:40;95002.91;;;-4.48;68.03
40592;BME280;26301;42.832;23.918;2023-02-08T13:39:21;95017.66;;;-4.42;68.26
40592;BME280;26301;42.832;23.918;2023-02-08T13:41:53;95010.16;;;-4.56;67.82
40592;BME280;26301;42.832;23.918;2023-02-08T13:44:28;95011.66;;;-4.66;69.42
40592;BME280;26301;42.832;23.918;2023-02-08T13:46:54;95037.09;;;-4.44;68.33
40592;BME280;26301;42.832;23.918;2023-02-08T14:03:29;95027.94;;;-4.32;64.94
40592;BME280;26301;42.832;23.918;2023-02-08T14:05:59;95036.44;;;-4.33;65.48
40592;BME280;26301;42.832;23.918;2023-02-08T14:08:40;95040.75;;;-4.35;66.51
40592;BME280;26301;42.832;23.918;2023-02-08T14:14:29;95017.19;;;-4.61;64.98
40592;BME280;26301;42.832;23.918;2023-02-08T14:17:13;95012.44;;;-4.66;66.45
40592;BME280;26301;42.832;23.918;2023-02-08T14:19:44;95040.75;;;-4.48;64.90
40592;BME280;26301;42.832;23.918;2023-02-08T14:24:42;95040.59;;;-4.59;65.47
40592;BME280;26301;42.832;23.918;2023-02-08T14:27:24;95051.22;;;-4.54;65.99
40592;BME280;26301;42.832;23.918;2023-02-08T14:33:07;95044.44;;;-4.53;66.38
40592;BME280;26301;42.832;23.918;2023-02-08T14:35:32;95048.59;;;-4.52;66.73
40592;BME280;26301;42.832;23.918;2023-02-08T14:41:01;95046.94;;;-4.66;67.85
40592;BME280;26301;42.832;23.918;2023-02-08T14:43:38;95041.56;;;-4.74;68.45
40592;BME280;26301;42.832;23.918;2023-02-08T14:49:08;95031.47;;;-5.01;68.37
40592;BME280;26301;42.832;23.918;2023-02-08T14:51:37;95044.50;;;-4.95;69.15
40592;BME280;26301;42.832;23.918;2023-02-08T14:54:16;95059.88;;;-4.85;69.82
40592;BME280;26301;42.832;23.918;2023-02-08T14:56:55;95054.81;;;-4.85;68.25
40592;BME280;26301;42.832;23.918;2023-02-08T14:59:25;95045.16;;;-5.06;68.89
40592;BME280;26301;42.832;23.918;2023-02-08T15:01:59;95061.72;;;-5.01;69.04
40592;BME280;26301;42.832;23.918;2023-02-08T15:04:26;95057.88;;;-5.07;68.25
40592;BME280;26301;42.832;23.918;2023-02-08T15:09:38;95062.41;;;-4.99;68.22
40592;BME280;26301;42.832;23.918;2023-02-08T15:12:42;95042.56;;;-5.18;68.82
40592;BME280;26301;42.832;23.918;2023-02-08T15:15:02;95063.34;;;-5.00;68.83
40592;BME280;26301;42.832;23.918;2023-02-08T15:17:33;95057.94;;;-5.09;69.12
40592;BME280;26301;42.832;23.918;2023-02-08T15:20:01;95075.56;;;-5.09;70.15
40592;BME280;26301;42.832;23.918;2023-02-08T15:22:36;95069.56;;;-5.06;69.67
40592;BME280;26301;42.832;23.918;2023-02-08T15:25:27;95056.72;;;-5.16;70.36
40592;BME280;26301;42.832;23.918;2023-02-08T15:27:57;95052.16;;;-5.23;71.15
40592;BME280;26301;42.832;23.918;2023-02-08T15:30:24;95076.31;;;-5.07;70.19
40592;BME280;26301;42.832;23.918;2023-02-08T15:32:50;95068.84;;;-5.08;70.62
40592;BME280;26301;42.832;23.918;2023-02-08T15:35:18;95073.72;;;-5.05;70.94
40592;BME280;26301;42.832;23.918;2023-02-08T15:37:45;95062.47;;;-5.14;70.75
40592;BME280;26301;42.832;23.918;2023-02-08T15:40:41;95079.81;;;-5.09;70.48